createdAt,value
2023-01-17T00:02:06.925Z,75.38
2023-01-17T00:06:09.517Z,75.51
2023-01-17T00:10:12.856Z,75.80
2023-01-17T00:14:14.257Z,75.57
2023-01-17T00:18:16.980Z,76.38
2023-01-17T00:22:22.398Z,76.01
2023-01-17T00:26:23.806Z,76.15
2023-01-17T00:30:26.095Z,76.61
2023-01-17T00:34:28.831Z,76.28
2023-01-17T00:38:31.887Z,76.80
2023-01-17T00:42:33.297Z,77.05
2023-01-17T00:46:34.719Z,77.48
2023-01-17T00:50:37.789Z,77.19
2023-01-17T00:54:39.226Z,77.30
2023-01-17T00:58:40.627Z,77.09
2023-01-17T01:02:42.109Z,75.58
2023-01-17T01:06:44.917Z,75.03
2023-01-17T01:10:48.059Z,75.60
2023-01-17T01:14:49.748Z,74.62
2023-01-17T01:18:51.138Z,74.34
2023-01-17T01:22:53.861Z,73.71
2023-01-17T01:26:55.272Z,72.75
2023-01-17T01:30:59.295Z,72.55
2023-01-17T01:35:00.711Z,72.43
2023-01-17T01:39:03.559Z,72.86
2023-01-17T01:43:06.179Z,71.79
2023-01-17T01:47:09.071Z,71.94
2023-01-17T01:51:13.468Z,71.22
2023-01-17T01:55:21.187Z,70.74
2023-01-17T01:59:23.473Z,69.98
2023-01-17T02:03:29.277Z,69.92
2023-01-17T02:07:34.411Z,69.36
2023-01-17T02:11:39.779Z,68.53
2023-01-17T02:15:50.023Z,69.23
2023-01-17T02:20:21.849Z,68.95
2023-01-17T02:24:41.367Z,68.81
2023-01-17T02:29:01.375Z,68.67
2023-01-17T02:33:17.827Z,67.75
2023-01-17T02:37:25.986Z,67.82
2023-01-17T02:41:32.548Z,67.94
2023-01-17T02:45:34.011Z,66.88
2023-01-17T02:49:36.881Z,66.22
2023-01-17T02:53:48.065Z,65.68
2023-01-17T02:58:04.751Z,64.08
2023-01-17T03:02:16.513Z,64.29
2023-01-17T03:06:24.909Z,63.57
2023-01-17T03:10:26.348Z,64.44
2023-01-17T03:14:30.877Z,64.27
2023-01-17T03:18:32.308Z,64.05
2023-01-17T03:22:35.032Z,64.81
2023-01-17T03:26:36.429Z,64.44
2023-01-17T03:30:37.860Z,64.81
2023-01-17T03:34:39.248Z,64.95
2023-01-17T03:38:41.983Z,64.43
2023-01-17T03:42:43.407Z,64.39
2023-01-17T03:46:44.800Z,65.26
2023-01-17T03:50:49.946Z,65.53
2023-01-17T03:54:52.674Z,65.10
2023-01-17T03:58:54.062Z,64.96
2023-01-17T04:02:55.487Z,65.79
2023-01-17T04:06:56.916Z,65.60
2023-01-17T04:10:59.677Z,65.37
2023-01-17T04:15:01.095Z,65.86
2023-01-17T04:19:02.505Z,65.32
2023-01-17T04:23:04.174Z,66.12
2023-01-17T04:27:06.921Z,66.84
2023-01-17T04:31:15.452Z,66.72
2023-01-17T04:35:17.033Z,66.19
2023-01-17T04:39:18.449Z,66.24
2023-01-17T04:43:21.178Z,65.65
2023-01-17T04:47:22.744Z,65.87
2023-01-17T04:51:24.303Z,66.07
2023-01-17T04:55:25.741Z,66.41
2023-01-17T04:59:28.501Z,66.43
2023-01-17T05:03:30.417Z,65.26
2023-01-17T05:07:31.819Z,65.82
2023-01-17T05:11:33.476Z,65.77
2023-01-17T05:15:36.769Z,65.39
2023-01-17T05:19:38.234Z,65.98
2023-01-17T05:23:39.640Z,64.93
2023-01-17T05:27:41.049Z,66.28
2023-01-17T05:31:43.777Z,65.71
2023-01-17T05:35:45.225Z,65.36
2023-01-17T05:39:46.629Z,64.52
2023-01-17T05:43:48.082Z,65.98
2023-01-17T05:47:53.147Z,66.22
2023-01-17T05:51:55.052Z,66.60
2023-01-17T05:55:56.514Z,65.25
2023-01-17T05:59:58.007Z,65.56
2023-01-17T06:04:00.756Z,64.87
2023-01-17T06:08:02.361Z,64.73
2023-01-17T06:12:04.405Z,64.97
2023-01-17T06:16:06.355Z,64.84
2023-01-17T06:20:11.846Z,65.20
2023-01-17T06:24:13.413Z,66.45
2023-01-17T06:28:17.087Z,65.77
2023-01-17T06:32:18.755Z,66.27
2023-01-17T06:36:21.518Z,65.52
2023-01-17T06:40:23.832Z,66.06
2023-01-17T06:44:25.239Z,66.66
2023-01-17T06:48:26.717Z,67.48
2023-01-17T06:52:29.451Z,67.72
2023-01-17T06:56:31.403Z,67.33
2023-01-17T07:00:32.840Z,67.91
2023-01-17T07:04:34.529Z,67.06
2023-01-17T07:08:37.536Z,67.01
2023-01-17T07:12:39.027Z,66.81
2023-01-17T07:16:40.474Z,66.94
2023-01-17T07:20:43.035Z,67.35
2023-01-17T07:24:45.752Z,66.86
2023-01-17T07:28:47.167Z,66.77
2023-01-17T07:32:51.057Z,66.89
2023-01-17T07:36:52.471Z,66.79
2023-01-17T07:40:58.915Z,66.34
2023-01-17T07:45:00.336Z,65.81
2023-01-17T07:49:02.593Z,66.75
2023-01-17T07:53:04.485Z,66.93
2023-01-17T07:57:11.567Z,66.51
2023-01-17T08:01:13.970Z,67.10
2023-01-17T08:05:16.300Z,67.36
2023-01-17T08:09:17.692Z,67.68
2023-01-17T08:13:20.527Z,67.57
2023-01-17T08:17:21.921Z,67.58
2023-01-17T08:21:23.896Z,67.43
2023-01-17T08:25:26.251Z,67.36
2023-01-17T08:29:29.028Z,67.48
2023-01-17T08:33:31.423Z,67.50
2023-01-17T08:37:32.866Z,68.04
2023-01-17T08:41:34.287Z,67.65
2023-01-17T08:45:37.151Z,67.47
2023-01-17T08:49:38.588Z,67.16
2023-01-17T08:53:40.002Z,66.73
2023-01-17T08:57:41.514Z,66.61
2023-01-17T09:01:44.468Z,65.79
2023-01-17T09:05:46.026Z,64.41
2023-01-17T09:09:47.456Z,63.19
2023-01-17T09:13:48.879Z,64.09
2023-01-17T09:17:55.221Z,61.65
2023-01-17T09:21:56.647Z,60.94
2023-01-17T09:25:59.513Z,60.66
2023-01-17T09:30:00.923Z,59.90
2023-01-17T09:34:03.697Z,58.40
2023-01-17T09:38:05.208Z,59.50
2023-01-17T09:42:20.387Z,58.56
2023-01-17T09:46:26.641Z,58.98
2023-01-17T09:50:31.123Z,59.90
2023-01-17T09:54:35.252Z,59.36
2023-01-17T09:58:45.496Z,58.68
2023-01-17T10:03:03.456Z,59.14
2023-01-17T10:07:17.754Z,56.77
2023-01-17T10:11:34.360Z,58.08
2023-01-17T10:15:49.475Z,58.56
2023-01-17T10:20:03.402Z,57.22
2023-01-17T10:24:24.505Z,58.14
2023-01-17T10:28:30.456Z,57.94
2023-01-17T10:32:35.201Z,57.69
2023-01-17T10:36:41.346Z,57.85
2023-01-17T10:40:49.262Z,57.00
2023-01-17T10:44:59.326Z,57.62
2023-01-17T10:49:02.150Z,57.51
2023-01-17T10:53:09.750Z,56.96
2023-01-17T10:57:15.757Z,56.61
2023-01-17T11:01:20.151Z,56.00
2023-01-17T11:05:24.376Z,57.12
2023-01-17T11:09:37.748Z,56.38
2023-01-17T11:13:40.642Z,56.86
2023-01-17T11:17:47.488Z,56.65
2023-01-17T11:21:52.002Z,56.32
2023-01-17T11:25:57.172Z,56.28
2023-01-17T11:30:13.551Z,55.72
2023-01-17T11:34:17.247Z,55.05
2023-01-17T11:38:21.857Z,55.38
2023-01-17T11:42:34.982Z,55.54
2023-01-17T11:46:37.861Z,55.40
2023-01-17T11:50:41.809Z,54.76
2023-01-17T11:54:46.745Z,55.80
2023-01-17T11:58:48.392Z,55.28
2023-01-17T12:03:10.521Z,55.06
2023-01-17T12:07:28.589Z,54.65
2023-01-17T12:11:35.131Z,52.31
2023-01-17T12:15:52.352Z,51.80
2023-01-17T12:19:59.366Z,51.23
2023-01-17T12:24:26.074Z,50.62
2023-01-17T12:28:45.844Z,51.51
2023-01-17T12:33:06.730Z,50.24
2023-01-17T12:37:19.515Z,49.08
2023-01-17T12:41:25.994Z,49.31
2023-01-17T12:45:32.116Z,50.49
2023-01-17T12:49:41.045Z,50.30
2023-01-17T12:53:49.224Z,50.32
2023-01-17T12:57:56.504Z,50.38
2023-01-17T13:02:01.311Z,51.89
2023-01-17T13:06:03.382Z,51.86
2023-01-17T13:10:24.016Z,51.96
2023-01-17T13:14:25.418Z,53.14
2023-01-17T13:18:29.205Z,53.33
2023-01-17T13:22:31.992Z,53.81
2023-01-17T13:26:46.648Z,54.20
2023-01-17T13:31:03.336Z,54.22
2023-01-17T13:35:19.745Z,54.60
2023-01-17T13:39:46.208Z,48.75
2023-01-17T13:43:49.090Z,47.25
2023-01-17T13:47:50.650Z,48.36
2023-01-17T13:52:06.758Z,47.51
2023-01-17T13:56:12.991Z,47.17
2023-01-17T14:00:48.956Z,50.08
2023-01-17T14:05:07.712Z,52.09
2023-01-17T14:09:16.657Z,54.09
2023-01-17T14:13:33.835Z,54.64
2023-01-17T14:17:55.563Z,55.55
2023-01-17T14:22:22.236Z,56.15
2023-01-17T14:26:31.575Z,56.41
2023-01-17T14:30:36.752Z,57.24
2023-01-17T14:34:39.851Z,57.52
2023-01-17T14:38:43.175Z,57.52
2023-01-17T14:42:47.202Z,56.98
2023-01-17T14:46:49.035Z,57.42
2023-01-17T14:50:52.912Z,58.06
2023-01-17T14:54:54.306Z,58.20
2023-01-17T14:59:11.757Z,58.62
2023-01-17T15:03:13.689Z,60.39
2023-01-17T15:07:17.168Z,60.90
2023-01-17T15:11:23.973Z,60.97
2023-01-17T15:15:33.654Z,61.23
2023-01-17T15:19:41.685Z,62.49
2023-01-17T15:23:47.995Z,62.85
2023-01-17T15:27:49.430Z,62.99
2023-01-17T15:31:53.401Z,63.48
2023-01-17T15:35:59.677Z,64.46
2023-01-17T15:40:06.415Z,64.37
2023-01-17T15:44:20.871Z,64.85
2023-01-17T15:48:37.545Z,68.08
2023-01-17T15:52:47.886Z,73.62
2023-01-17T15:57:01.400Z,71.05
2023-01-17T16:01:02.922Z,68.86
2023-01-17T16:05:35.961Z,70.39
2023-01-17T16:09:43.589Z,70.81
2023-01-17T16:13:46.411Z,70.41
2023-01-17T16:17:51.052Z,71.62
2023-01-17T16:21:52.664Z,71.88
2023-01-17T16:25:54.225Z,72.44
2023-01-17T16:29:57.059Z,71.59
2023-01-17T16:33:58.481Z,71.42
2023-01-17T16:38:02.047Z,72.22
2023-01-17T16:42:03.703Z,70.22
2023-01-17T16:46:06.793Z,71.17
2023-01-17T16:50:10.018Z,71.90
2023-01-17T16:54:11.449Z,71.92
2023-01-17T16:58:12.887Z,73.86
2023-01-17T17:02:15.697Z,74.36
2023-01-17T17:06:17.240Z,76.01
2023-01-17T17:10:20.459Z,76.06
2023-01-17T17:14:21.846Z,76.36
2023-01-17T17:18:24.580Z,76.59
2023-01-17T17:22:26.023Z,75.82
2023-01-17T17:26:29.808Z,76.29
2023-01-17T17:30:31.606Z,75.96
2023-01-17T17:34:34.348Z,76.91
2023-01-17T17:38:36.329Z,78.94
2023-01-17T17:42:37.835Z,79.52
2023-01-17T17:46:39.338Z,78.20
2023-01-17T17:50:42.109Z,77.47
2023-01-17T17:54:43.496Z,78.01
2023-01-17T17:58:46.225Z,79.20
2023-01-17T18:02:47.663Z,80.30
2023-01-17T18:06:50.418Z,81.33
2023-01-17T18:10:57.728Z,81.31
2023-01-17T18:14:59.124Z,81.48
2023-01-17T18:19:01.060Z,82.62
2023-01-17T18:23:04.129Z,82.24
2023-01-17T18:27:05.616Z,83.50
2023-01-17T18:31:07.656Z,83.50
2023-01-17T18:35:09.751Z,82.79
2023-01-17T18:39:14.464Z,82.74
2023-01-17T18:43:15.885Z,82.76
2023-01-17T18:47:17.283Z,82.53
2023-01-17T18:51:19.521Z,83.90
2023-01-17T18:55:22.262Z,82.65
2023-01-17T18:59:23.674Z,82.90
2023-01-17T19:03:26.787Z,82.43
2023-01-17T19:07:28.190Z,82.91
2023-01-17T19:11:30.921Z,82.88
2023-01-17T19:15:32.663Z,82.52
2023-01-17T19:19:34.070Z,82.71
2023-01-17T19:23:36.485Z,83.34
2023-01-17T19:27:39.294Z,82.70
2023-01-17T19:31:40.963Z,81.86
2023-01-17T19:35:42.383Z,81.55
2023-01-17T19:39:43.789Z,81.55
2023-01-17T19:43:46.620Z,83.49
2023-01-17T19:47:48.045Z,83.31
2023-01-17T19:51:49.466Z,84.04
2023-01-17T19:55:50.947Z,83.30
2023-01-17T19:59:53.953Z,83.34
2023-01-17T20:03:57.920Z,84.89
2023-01-17T20:07:59.899Z,83.69
2023-01-17T20:12:01.316Z,82.21
2023-01-17T20:16:05.322Z,82.07
2023-01-17T20:20:07.300Z,83.83
2023-01-17T20:24:10.285Z,83.59
2023-01-17T20:28:11.721Z,83.92
2023-01-17T20:32:14.508Z,84.37
2023-01-17T20:36:17.913Z,83.87
2023-01-17T20:40:19.333Z,83.92
2023-01-17T20:44:21.016Z,84.88
2023-01-17T20:48:23.752Z,84.72
2023-01-17T20:52:25.150Z,84.72
2023-01-17T20:56:27.473Z,83.50
2023-01-17T21:00:28.965Z,84.04
2023-01-17T21:04:31.727Z,83.77
2023-01-17T21:08:35.275Z,83.41
2023-01-17T21:12:36.686Z,83.86
2023-01-17T21:16:39.053Z,82.85
2023-01-17T21:20:41.939Z,82.11
2023-01-17T21:24:43.329Z,83.54
2023-01-17T21:28:46.636Z,84.63
2023-01-17T21:32:48.033Z,85.32
2023-01-17T21:36:50.754Z,85.27
2023-01-17T21:40:56.493Z,84.80
2023-01-17T21:44:57.905Z,83.70
2023-01-17T21:48:59.292Z,84.71
2023-01-17T21:53:02.819Z,84.37
2023-01-17T21:57:04.221Z,84.15
2023-01-17T22:01:06.168Z,84.49
2023-01-17T22:05:09.002Z,84.41
2023-01-17T22:09:11.725Z,83.97
2023-01-17T22:13:14.542Z,83.60
2023-01-17T22:17:15.988Z,84.27
2023-01-17T22:21:18.920Z,83.94
2023-01-17T22:25:21.653Z,84.61
2023-01-17T22:29:23.210Z,84.32
2023-01-17T22:33:24.601Z,86.27
2023-01-17T22:37:26.580Z,86.18
2023-01-17T22:41:29.724Z,85.71
2023-01-17T22:45:31.161Z,84.20
2023-01-17T22:49:32.555Z,84.62
2023-01-17T22:53:34.030Z,85.24
2023-01-17T22:57:36.772Z,84.85
2023-01-17T23:01:39.609Z,85.52
2023-01-17T23:05:41.007Z,84.08
2023-01-17T23:09:42.400Z,84.39
2023-01-17T23:13:45.120Z,85.06
2023-01-17T23:17:46.509Z,84.93
2023-01-17T23:21:48.313Z,85.32
2023-01-17T23:25:49.713Z,85.83
2023-01-17T23:29:52.429Z,85.99
2023-01-17T23:33:53.841Z,86.43
2023-01-17T23:37:55.884Z,87.16
2023-01-17T23:41:57.410Z,87.66
2023-01-17T23:46:00.525Z,87.77
2023-01-17T23:50:01.915Z,86.71
2023-01-17T23:54:03.605Z,86.98
2023-01-17T23:58:05.910Z,86.11
